sensor_id;sensor_type;location;lat;lon;timestamp;pressure;altitude;pressure_sealevel;temperature;humidity
23363;BME280;11853;48.080;11.960;2023-08-20T00:02:23;95248.47;;;23.62;86.79
23363;BME280;11853;48.080;11.960;2023-08-20T00:04:50;95250.81;;;23.58;87.29
23363;BME280;11853;48.080;11.960;2023-08-20T00:07:17;95242.53;;;23.53;87.66
23363;BME280;11853;48.080;11.960;2023-08-20T00:09:44;95241.28;;;23.49;87.50
23363;BME280;11853;48.080;11.960;2023-08-20T00:12:10;95241.75;;;23.46;87.16
23363;BME280;11853;48.080;11.960;2023-08-20T00:14:58;95241.38;;;23.43;87.83
23363;BME280;11853;48.080;11.960;2023-08-20T00:17:40;95237.63;;;23.44;88.55
23363;BME280;11853;48.080;11.960;2023-08-20T00:20:09;95235.50;;;23.46;89.13
23363;BME280;11853;48.080;11.960;2023-08-20T00:22:39;95236.56;;;23.45;90.02
23363;BME280;11853;48.080;11.960;2023-08-20T00:25:05;95238.44;;;23.44;90.56
23363;BME280;11853;48.080;11.960;2023-08-20T00:27:32;95236.19;;;23.41;90.00
23363;BME280;11853;48.080;11.960;2023-08-20T00:29:58;95239.34;;;23.38;89.75
23363;BME280;11853;48.080;11.960;2023-08-20T00:32:24;95237.06;;;23.35;90.42
23363;BME280;11853;48.080;11.960;2023-08-20T00:34:50;95235.66;;;23.32;90.27
23363;BME280;11853;48.080;11.960;2023-08-20T00:37:15;95239.63;;;23.30;91.12
23363;BME280;11853;48.080;11.960;2023-08-20T00:39:41;95243.59;;;23.27;91.34
23363;BME280;11853;48.080;11.960;2023-08-20T00:42:07;95250.28;;;23.25;91.01
23363;BME280;11853;48.080;11.960;2023-08-20T00:44:36;95243.63;;;23.21;91.91
23363;BME280;11853;48.080;11.960;2023-08-20T00:47:02;95242.44;;;23.16;91.75
23363;BME280;11853;48.080;11.960;2023-08-20T00:49:31;95246.66;;;23.12;91.22
23363;BME280;11853;48.080;11.960;2023-08-20T00:51:57;95241.06;;;23.07;90.96
23363;BME280;11853;48.080;11.960;2023-08-20T00:54:24;95239.84;;;23.03;91.31
23363;BME280;11853;48.080;11.960;2023-08-20T00:56:51;95246.09;;;23.04;91.64
23363;BME280;11853;48.080;11.960;2023-08-20T00:59:17;95244.66;;;23.01;91.69
23363;BME280;11853;48.080;11.960;2023-08-20T01:01:43;95248.41;;;23.00;91.95
23363;BME280;11853;48.080;11.960;2023-08-20T01:04:10;95252.16;;;22.99;92.23
23363;BME280;11853;48.080;11.960;2023-08-20T01:07:04;95251.34;;;22.99;92.60
23363;BME280;11853;48.080;11.960;2023-08-20T01:09:50;95250.72;;;22.97;92.69
23363;BME280;11853;48.080;11.960;2023-08-20T01:12:17;95252.63;;;22.89;93.50
23363;BME280;11853;48.080;11.960;2023-08-20T01:14:43;95250.56;;;22.85;94.39
23363;BME280;11853;48.080;11.960;2023-08-20T01:17:09;95254.53;;;22.82;94.47
23363;BME280;11853;48.080;11.960;2023-08-20T01:19:35;95262.91;;;22.81;94.56
23363;BME280;11853;48.080;11.960;2023-08-20T01:25:30;95263.59;;;22.69;94.97
23363;BME280;11853;48.080;11.960;2023-08-20T01:28:26;95258.19;;;22.69;94.52
23363;BME280;11853;48.080;11.960;2023-08-20T01:30:54;95260.25;;;22.67;94.58
23363;BME280;11853;48.080;11.960;2023-08-20T01:33:22;95260.69;;;22.64;95.24
23363;BME280;11853;48.080;11.960;2023-08-20T01:35:50;95255.50;;;22.63;94.71
23363;BME280;11853;48.080;11.960;2023-08-20T01:38:16;95261.13;;;22.61;95.27
23363;BME280;11853;48.080;11.960;2023-08-20T01:40:42;95262.41;;;22.59;95.03
23363;BME280;11853;48.080;11.960;2023-08-20T01:43:08;95266.38;;;22.56;95.15
23363;BME280;11853;48.080;11.960;2023-08-20T01:45:33;95266.97;;;22.58;95.48
23363;BME280;11853;48.080;11.960;2023-08-20T01:47:59;95268.00;;;22.57;95.67
23363;BME280;11853;48.080;11.960;2023-08-20T01:50:25;95268.25;;;22.56;96.25
23363;BME280;11853;48.080;11.960;2023-08-20T01:52:50;95265.75;;;22.54;96.34
23363;BME280;11853;48.080;11.960;2023-08-20T01:55:16;95261.59;;;22.52;95.67
23363;BME280;11853;48.080;11.960;2023-08-20T01:57:42;95265.56;;;22.49;95.31
23363;BME280;11853;48.080;11.960;2023-08-20T02:00:09;95257.88;;;22.46;95.48
23363;BME280;11853;48.080;11.960;2023-08-20T02:02:35;95261.00;;;22.43;95.94
23363;BME280;11853;48.080;11.960;2023-08-20T02:05:01;95253.97;;;22.42;95.76
23363;BME280;11853;48.080;11.960;2023-08-20T02:07:26;95257.50;;;22.42;95.65
23363;BME280;11853;48.080;11.960;2023-08-20T02:09:52;95256.28;;;22.38;96.34
23363;BME280;11853;48.080;11.960;2023-08-20T02:12:18;95249.41;;;22.36;96.77
23363;BME280;11853;48.080;11.960;2023-08-20T02:14:44;95256.91;;;22.34;96.51
23363;BME280;11853;48.080;11.960;2023-08-20T02:17:09;95255.69;;;22.30;96.91
23363;BME280;11853;48.080;11.960;2023-08-20T02:19:37;95254.66;;;22.31;96.40
23363;BME280;11853;48.080;11.960;2023-08-20T02:22:03;95258.41;;;22.30;96.22
23363;BME280;11853;48.080;11.960;2023-08-20T02:24:29;95262.13;;;22.29;93.67
23363;BME280;11853;48.080;11.960;2023-08-20T02:26:54;95265.69;;;22.22;91.49
23363;BME280;11853;48.080;11.960;2023-08-20T02:29:20;95271.50;;;22.26;91.67
23363;BME280;11853;48.080;11.960;2023-08-20T02:31:45;95268.78;;;22.26;93.78
23363;BME280;11853;48.080;11.960;2023-08-20T02:34:11;95264.25;;;22.20;94.83
23363;BME280;11853;48.080;11.960;2023-08-20T02:36:37;95262.81;;;22.17;94.76
23363;BME280;11853;48.080;11.960;2023-08-20T02:39:03;95270.09;;;22.10;89.49
23363;BME280;11853;48.080;11.960;2023-08-20T02:41:35;95263.28;;;22.01;86.88
23363;BME280;11853;48.080;11.960;2023-08-20T02:44:02;95263.03;;;22.02;85.22
23363;BME280;11853;48.080;11.960;2023-08-20T02:46:27;95260.16;;;22.04;83.90
23363;BME280;11853;48.080;11.960;2023-08-20T02:48:53;95252.63;;;22.06;84.63
23363;BME280;11853;48.080;11.960;2023-08-20T02:51:19;95263.44;;;22.06;84.33
23363;BME280;11853;48.080;11.960;2023-08-20T02:53:44;95269.28;;;22.03;84.10
23363;BME280;11853;48.080;11.960;2023-08-20T02:56:10;95270.94;;;22.04;83.71
23363;BME280;11853;48.080;11.960;2023-08-20T02:58:36;95265.53;;;22.04;82.24
23363;BME280;11853;48.080;11.960;2023-08-20T03:01:01;95266.81;;;22.01;82.47
23363;BME280;11853;48.080;11.960;2023-08-20T03:03:28;95266.84;;;21.95;83.39
23363;BME280;11853;48.080;11.960;2023-08-20T03:05:53;95269.53;;;21.95;83.09
23363;BME280;11853;48.080;11.960;2023-08-20T03:08:19;95264.97;;;21.95;82.79
23363;BME280;11853;48.080;11.960;2023-08-20T03:10:45;95260.38;;;21.96;81.52
23363;BME280;11853;48.080;11.960;2023-08-20T03:13:11;95263.69;;;21.98;81.63
23363;BME280;11853;48.080;11.960;2023-08-20T03:15:36;95268.06;;;21.99;81.22
23363;BME280;11853;48.080;11.960;2023-08-20T03:18:02;95274.72;;;21.96;81.49
23363;BME280;11853;48.080;11.960;2023-08-20T03:20:28;95273.06;;;21.95;81.25
23363;BME280;11853;48.080;11.960;2023-08-20T03:22:56;95270.13;;;21.97;81.85
23363;BME280;11853;48.080;11.960;2023-08-20T03:25:22;95265.56;;;21.97;82.80
23363;BME280;11853;48.080;11.960;2023-08-20T03:27:47;95267.44;;;21.97;83.23
23363;BME280;11853;48.080;11.960;2023-08-20T03:30:13;95265.59;;;21.91;83.54
23363;BME280;11853;48.080;11.960;2023-08-20T03:32:38;95281.38;;;21.94;84.19
23363;BME280;11853;48.080;11.960;2023-08-20T03:35:04;95279.09;;;21.91;84.48
23363;BME280;11853;48.080;11.960;2023-08-20T03:37:30;95279.31;;;21.89;85.00
23363;BME280;11853;48.080;11.960;2023-08-20T03:39:56;95275.16;;;21.87;84.47
23363;BME280;11853;48.080;11.960;2023-08-20T03:42:21;95276.19;;;21.86;83.95
23363;BME280;11853;48.080;11.960;2023-08-20T03:44:47;95277.03;;;21.79;82.87
23363;BME280;11853;48.080;11.960;2023-08-20T03:47:12;95273.94;;;21.76;83.51
23363;BME280;11853;48.080;11.960;2023-08-20T03:49:38;95278.09;;;21.78;83.57
23363;BME280;11853;48.080;11.960;2023-08-20T03:52:04;95285.16;;;21.79;84.49
23363;BME280;11853;48.080;11.960;2023-08-20T03:54:33;95288.47;;;21.81;84.63
23363;BME280;11853;48.080;11.960;2023-08-20T03:56:58;95288.91;;;21.78;85.69
23363;BME280;11853;48.080;11.960;2023-08-20T03:59:24;95289.31;;;21.75;86.30
23363;BME280;11853;48.080;11.960;2023-08-20T04:01:49;95287.88;;;21.73;85.92
23363;BME280;11853;48.080;11.960;2023-08-20T04:04:15;95293.47;;;21.71;85.96
23363;BME280;11853;48.080;11.960;2023-08-20T04:06:40;95293.91;;;21.68;85.27
23363;BME280;11853;48.080;11.960;2023-08-20T04:09:06;95290.19;;;21.69;85.08
23363;BME280;11853;48.080;11.960;2023-08-20T04:11:32;95293.91;;;21.68;84.80
23363;BME280;11853;48.080;11.960;2023-08-20T04:13:57;95294.72;;;21.69;85.30
23363;BME280;11853;48.080;11.960;2023-08-20T04:16:23;95292.03;;;21.69;85.72
23363;BME280;11853;48.080;11.960;2023-08-20T04:18:49;95293.47;;;21.71;86.88
23363;BME280;11853;48.080;11.960;2023-08-20T04:21:14;95307.41;;;21.68;86.37
23363;BME280;11853;48.080;11.960;2023-08-20T04:23:40;95304.09;;;21.66;87.37
23363;BME280;11853;48.080;11.960;2023-08-20T04:26:07;95301.59;;;21.65;88.05
23363;BME280;11853;48.080;11.960;2023-08-20T04:28:32;95301.41;;;21.66;85.04
23363;BME280;11853;48.080;11.960;2023-08-20T04:30:58;95294.53;;;21.64;85.29
23363;BME280;11853;48.080;11.960;2023-08-20T04:33:25;95297.25;;;21.64;87.13
23363;BME280;11853;48.080;11.960;2023-08-20T04:35:51;95299.72;;;21.65;88.02
23363;BME280;11853;48.080;11.960;2023-08-20T04:38:17;95302.00;;;21.68;88.01
23363;BME280;11853;48.080;11.960;2023-08-20T04:40:42;95300.56;;;21.72;88.38
23363;BME280;11853;48.080;11.960;2023-08-20T04:43:10;95303.44;;;21.77;88.74
23363;BME280;11853;48.080;11.960;2023-08-20T04:45:36;95302.81;;;21.82;87.85
23363;BME280;11853;48.080;11.960;2023-08-20T04:48:02;95308.81;;;21.91;87.20
23363;BME280;11853;48.080;11.960;2023-08-20T04:50:27;95305.06;;;21.98;85.65
23363;BME280;11853;48.080;11.960;2023-08-20T04:52:53;95313.75;;;22.07;84.96
23363;BME280;11853;48.080;11.960;2023-08-20T04:55:18;95301.66;;;22.16;83.96
23363;BME280;11853;48.080;11.960;2023-08-20T04:57:44;95312.63;;;22.35;83.31
23363;BME280;11853;48.080;11.960;2023-08-20T05:00:10;95312.97;;;22.52;82.28
23363;BME280;11853;48.080;11.960;2023-08-20T05:02:35;95308.13;;;22.67;81.68
23363;BME280;11853;48.080;11.960;2023-08-20T05:05:02;95312.25;;;22.76;82.20
23363;BME280;11853;48.080;11.960;2023-08-20T05:07:28;95309.84;;;22.93;82.14
23363;BME280;11853;48.080;11.960;2023-08-20T05:09:54;95306.97;;;23.20;78.51
23363;BME280;11853;48.080;11.960;2023-08-20T05:12:19;95311.59;;;23.44;76.96
23363;BME280;11853;48.080;11.960;2023-08-20T05:14:45;95321.09;;;23.78;77.82
23363;BME280;11853;48.080;11.960;2023-08-20T05:17:10;95311.41;;;24.08;76.21
23363;BME280;11853;48.080;11.960;2023-08-20T05:19:36;95327.09;;;24.24;73.19
23363;BME280;11853;48.080;11.960;2023-08-20T05:22:01;95330.84;;;24.41;72.50
23363;BME280;11853;48.080;11.960;2023-08-20T05:24:27;95334.53;;;24.28;70.13
23363;BME280;11853;48.080;11.960;2023-08-20T05:27:15;95337.47;;;23.90;71.17
23363;BME280;11853;48.080;11.960;2023-08-20T05:29:42;95332.94;;;23.84;72.25
23363;BME280;11853;48.080;11.960;2023-08-20T05:32:07;95336.81;;;23.63;73.19
23363;BME280;11853;48.080;11.960;2023-08-20T05:34:33;95337.16;;;23.48;74.36
23363;BME280;11853;48.080;11.960;2023-08-20T05:36:59;95337.84;;;23.12;75.76
23363;BME280;11853;48.080;11.960;2023-08-20T05:39:25;95332.75;;;22.97;76.32
23363;BME280;11853;48.080;11.960;2023-08-20T05:41:52;95336.28;;;22.91;77.59
23363;BME280;11853;48.080;11.960;2023-08-20T05:44:18;95328.88;;;22.80;78.07
23363;BME280;11853;48.080;11.960;2023-08-20T05:46:44;95333.00;;;22.82;78.83
23363;BME280;11853;48.080;11.960;2023-08-20T05:49:09;95332.84;;;22.77;79.66
23363;BME280;11853;48.080;11.960;2023-08-20T05:51:35;95334.28;;;22.80;79.40
23363;BME280;11853;48.080;11.960;2023-08-20T05:54:00;95338.59;;;23.26;80.13
23363;BME280;11853;48.080;11.960;2023-08-20T05:56:26;95334.78;;;23.33;77.34
23363;BME280;11853;48.080;11.960;2023-08-20T05:58:51;95331.47;;;23.31;77.23
23363;BME280;11853;48.080;11.960;2023-08-20T06:01:17;95331.53;;;23.25;77.66
23363;BME280;11853;48.080;11.960;2023-08-20T06:03:42;95328.25;;;23.16;78.63
23363;BME280;11853;48.080;11.960;2023-08-20T06:06:08;95342.44;;;23.11;79.02
23363;BME280;11853;48.080;11.960;2023-08-20T06:08:33;95338.34;;;23.02;79.76
23363;BME280;11853;48.080;11.960;2023-08-20T06:10:59;95337.13;;;22.98;79.87
23363;BME280;11853;48.080;11.960;2023-08-20T06:13:24;95336.47;;;23.03;80.34
23363;BME280;11853;48.080;11.960;2023-08-20T06:15:50;95328.59;;;23.26;80.96
23363;BME280;11853;48.080;11.960;2023-08-20T06:18:16;95334.53;;;23.67;80.73
23363;BME280;11853;48.080;11.960;2023-08-20T06:20:41;95343.78;;;24.02;77.82
23363;BME280;11853;48.080;11.960;2023-08-20T06:23:07;95336.78;;;24.32;75.04
23363;BME280;11853;48.080;11.960;2023-08-20T06:25:32;95339.75;;;24.48;73.61
23363;BME280;11853;48.080;11.960;2023-08-20T06:27:58;95344.72;;;24.70;73.48
23363;BME280;11853;48.080;11.960;2023-08-20T06:30:23;95354.47;;;24.89;72.75
23363;BME280;11853;48.080;11.960;2023-08-20T06:32:49;95345.38;;;25.14;72.76
23363;BME280;11853;48.080;11.960;2023-08-20T06:35:14;95352.56;;;25.38;71.40
23363;BME280;11853;48.080;11.960;2023-08-20T06:37:40;95351.63;;;25.45;70.65
23363;BME280;11853;48.080;11.960;2023-08-20T06:40:07;95347.63;;;25.59;67.44
23363;BME280;11853;48.080;11.960;2023-08-20T06:42:33;95350.00;;;25.79;69.08
23363;BME280;11853;48.080;11.960;2023-08-20T06:44:58;95354.06;;;26.00;68.53
23363;BME280;11853;48.080;11.960;2023-08-20T06:47:24;95347.91;;;26.04;66.77
23363;BME280;11853;48.080;11.960;2023-08-20T06:49:50;95342.47;;;26.16;65.59
23363;BME280;11853;48.080;11.960;2023-08-20T06:52:16;95341.66;;;26.16;64.82
23363;BME280;11853;48.080;11.960;2023-08-20T06:54:45;95345.88;;;26.23;65.55
23363;BME280;11853;48.080;11.960;2023-08-20T06:57:14;95343.06;;;26.18;63.67
23363;BME280;11853;48.080;11.960;2023-08-20T06:59:40;95336.91;;;26.11;63.58
23363;BME280;11853;48.080;11.960;2023-08-20T07:02:09;95347.06;;;26.27;64.41
23363;BME280;11853;48.080;11.960;2023-08-20T07:04:35;95352.38;;;26.34;63.65
23363;BME280;11853;48.080;11.960;2023-08-20T07:07:01;95359.59;;;26.28;63.09
23363;BME280;11853;48.080;11.960;2023-08-20T07:09:27;95354.41;;;26.27;63.61
23363;BME280;11853;48.080;11.960;2023-08-20T07:11:52;95355.72;;;26.24;63.82
23363;BME280;11853;48.080;11.960;2023-08-20T07:14:23;95361.47;;;26.40;65.09
23363;BME280;11853;48.080;11.960;2023-08-20T07:16:49;95374.03;;;26.52;66.35
23363;BME280;11853;48.080;11.960;2023-08-20T07:19:15;95366.31;;;26.49;64.44
23363;BME280;11853;48.080;11.960;2023-08-20T07:21:40;95368.47;;;26.59;63.64
23363;BME280;11853;48.080;11.960;2023-08-20T07:24:06;95384.31;;;26.62;62.77
23363;BME280;11853;48.080;11.960;2023-08-20T07:26:32;95375.91;;;26.64;63.40
23363;BME280;11853;48.080;11.960;2023-08-20T07:28:57;95388.78;;;26.68;64.13
23363;BME280;11853;48.080;11.960;2023-08-20T07:31:24;95378.13;;;26.79;65.62
23363;BME280;11853;48.080;11.960;2023-08-20T07:33:51;95377.28;;;26.90;63.91
23363;BME280;11853;48.080;11.960;2023-08-20T07:36:17;95384.25;;;26.86;61.60
23363;BME280;11853;48.080;11.960;2023-08-20T07:38:43;95380.00;;;26.90;63.25
23363;BME280;11853;48.080;11.960;2023-08-20T07:41:09;95374.44;;;26.85;63.02
23363;BME280;11853;48.080;11.960;2023-08-20T07:43:37;95376.69;;;26.88;64.54
23363;BME280;11853;48.080;11.960;2023-08-20T07:46:07;95375.41;;;26.67;62.47
23363;BME280;11853;48.080;11.960;2023-08-20T07:48:33;95371.75;;;26.73;64.90
23363;BME280;11853;48.080;11.960;2023-08-20T07:50:59;95380.38;;;26.82;65.20
23363;BME280;11853;48.080;11.960;2023-08-20T07:53:25;95374.41;;;26.96;65.10
23363;BME280;11853;48.080;11.960;2023-08-20T07:55:51;95382.03;;;27.11;64.99
23363;BME280;11853;48.080;11.960;2023-08-20T07:58:16;95383.59;;;27.07;62.81
23363;BME280;11853;48.080;11.960;2023-08-20T08:00:42;95383.88;;;26.94;64.61
23363;BME280;11853;48.080;11.960;2023-08-20T08:03:08;95386.25;;;26.90;64.08
23363;BME280;11853;48.080;11.960;2023-08-20T08:05:35;95391.44;;;26.92;64.65
23363;BME280;11853;48.080;11.960;2023-08-20T08:08:01;95392.72;;;27.01;64.42
23363;BME280;11853;48.080;11.960;2023-08-20T08:10:26;95395.00;;;27.04;63.97
23363;BME280;11853;48.080;11.960;2023-08-20T08:12:52;95395.44;;;27.01;62.95
23363;BME280;11853;48.080;11.960;2023-08-20T08:15:17;95391.41;;;27.15;63.15
23363;BME280;11853;48.080;11.960;2023-08-20T08:17:44;95391.38;;;27.27;61.73
23363;BME280;11853;48.080;11.960;2023-08-20T08:20:09;95393.72;;;27.24;61.46
23363;BME280;11853;48.080;11.960;2023-08-20T08:22:35;95401.63;;;27.37;62.91
23363;BME280;11853;48.080;11.960;2023-08-20T08:25:00;95398.50;;;27.45;62.71
23363;BME280;11853;48.080;11.960;2023-08-20T08:27:26;95408.63;;;27.61;62.26
23363;BME280;11853;48.080;11.960;2023-08-20T08:29:51;95406.56;;;27.69;59.19
23363;BME280;11853;48.080;11.960;2023-08-20T08:32:17;95412.44;;;27.77;60.55
23363;BME280;11853;48.080;11.960;2023-08-20T08:34:43;95411.97;;;27.80;59.59
23363;BME280;11853;48.080;11.960;2023-08-20T08:37:08;95409.38;;;27.74;60.17
23363;BME280;11853;48.080;11.960;2023-08-20T08:39:34;95409.06;;;27.87;63.03
23363;BME280;11853;48.080;11.960;2023-08-20T08:42:01;95406.28;;;27.99;61.42
23363;BME280;11853;48.080;11.960;2023-08-20T08:44:34;95409.25;;;27.97;61.48
23363;BME280;11853;48.080;11.960;2023-08-20T08:47:01;95409.66;;;28.06;62.55
23363;BME280;11853;48.080;11.960;2023-08-20T08:49:27;95409.47;;;28.13;61.79
23363;BME280;11853;48.080;11.960;2023-08-20T08:51:56;95414.28;;;28.22;62.63
23363;BME280;11853;48.080;11.960;2023-08-20T08:54:22;95412.78;;;28.32;62.21
23363;BME280;11853;48.080;11.960;2023-08-20T08:56:48;95413.44;;;28.39;62.57
23363;BME280;11853;48.080;11.960;2023-08-20T08:59:14;95416.84;;;28.46;62.67
23363;BME280;11853;48.080;11.960;2023-08-20T09:01:41;95416.50;;;28.59;64.25
23363;BME280;11853;48.080;11.960;2023-08-20T09:04:07;95417.00;;;28.78;65.70
23363;BME280;11853;48.080;11.960;2023-08-20T09:06:52;95417.03;;;29.00;63.23
23363;BME280;11853;48.080;11.960;2023-08-20T09:09:19;95413.66;;;29.15;60.78
23363;BME280;11853;48.080;11.960;2023-08-20T09:12:01;95418.56;;;29.13;62.16
23363;BME280;11853;48.080;11.960;2023-08-20T09:14:37;95420.47;;;29.12;59.01
23363;BME280;11853;48.080;11.960;2023-08-20T09:17:03;95416.09;;;29.11;59.17
23363;BME280;11853;48.080;11.960;2023-08-20T09:19:29;95410.06;;;29.09;59.25
23363;BME280;11853;48.080;11.960;2023-08-20T09:21:58;95409.22;;;29.09;59.82
23363;BME280;11853;48.080;11.960;2023-08-20T09:24:38;95410.94;;;29.15;60.73
23363;BME280;11853;48.080;11.960;2023-08-20T09:27:14;95412.03;;;29.14;61.90
23363;BME280;11853;48.080;11.960;2023-08-20T09:29:47;95418.38;;;29.19;62.10
23363;BME280;11853;48.080;11.960;2023-08-20T09:32:18;95412.78;;;29.31;60.99
23363;BME280;11853;48.080;11.960;2023-08-20T09:34:49;95418.25;;;29.31;60.40
23363;BME280;11853;48.080;11.960;2023-08-20T09:37:17;95408.34;;;29.25;57.92
23363;BME280;11853;48.080;11.960;2023-08-20T09:39:43;95410.56;;;29.28;58.56
23363;BME280;11853;48.080;11.960;2023-08-20T09:42:22;95416.13;;;29.38;57.26
23363;BME280;11853;48.080;11.960;2023-08-20T09:44:58;95412.19;;;29.29;57.99
23363;BME280;11853;48.080;11.960;2023-08-20T09:47:29;95411.00;;;29.20;56.23
23363;BME280;11853;48.080;11.960;2023-08-20T09:50:08;95411.94;;;29.31;53.34
23363;BME280;11853;48.080;11.960;2023-08-20T09:52:39;95407.03;;;29.33;55.22
23363;BME280;11853;48.080;11.960;2023-08-20T09:55:16;95412.84;;;29.36;55.30
23363;BME280;11853;48.080;11.960;2023-08-20T09:57:47;95403.47;;;29.32;55.46
23363;BME280;11853;48.080;11.960;2023-08-20T10:00:13;95414.53;;;29.42;56.05
23363;BME280;11853;48.080;11.960;2023-08-20T10:02:41;95400.69;;;29.54;54.15
23363;BME280;11853;48.080;11.960;2023-08-20T10:05:08;95407.56;;;29.57;55.78
23363;BME280;11853;48.080;11.960;2023-08-20T10:07:35;95412.47;;;29.55;56.92
23363;BME280;11853;48.080;11.960;2023-08-20T10:10:04;95409.22;;;29.58;56.57
23363;BME280;11853;48.080;11.960;2023-08-20T10:12:31;95410.13;;;29.63;56.36
23363;BME280;11853;48.080;11.960;2023-08-20T10:14:57;95419.16;;;29.64;57.38
23363;BME280;11853;48.080;11.960;2023-08-20T10:17:24;95416.69;;;29.62;56.57
23363;BME280;11853;48.080;11.960;2023-08-20T10:19:53;95420.81;;;29.65;55.86
23363;BME280;11853;48.080;11.960;2023-08-20T10:22:20;95411.69;;;29.59;55.88
23363;BME280;11853;48.080;11.960;2023-08-20T10:24:52;95414.00;;;29.68;58.21
23363;BME280;11853;48.080;11.960;2023-08-20T10:27:26;95414.81;;;29.68;57.78
23363;BME280;11853;48.080;11.960;2023-08-20T10:29:53;95415.66;;;29.69;57.94
23363;BME280;11853;48.080;11.960;2023-08-20T10:32:19;95419.78;;;29.71;55.92
23363;BME280;11853;48.080;11.960;2023-08-20T10:34:50;95418.72;;;29.77;56.66
23363;BME280;11853;48.080;11.960;2023-08-20T10:37:26;95423.78;;;29.91;57.25
23363;BME280;11853;48.080;11.960;2023-08-20T10:39:56;95415.19;;;29.77;55.96
23363;BME280;11853;48.080;11.960;2023-08-20T10:42:26;95416.00;;;29.77;55.37
23363;BME280;11853;48.080;11.960;2023-08-20T10:45:05;95414.00;;;30.00;54.69
23363;BME280;11853;48.080;11.960;2023-08-20T10:50:08;95415.81;;;29.89;55.64
23363;BME280;11853;48.080;11.960;2023-08-20T10:52:40;95415.59;;;29.91;55.98
23363;BME280;11853;48.080;11.960;2023-08-20T10:55:07;95422.16;;;29.95;57.06
23363;BME280;11853;48.080;11.960;2023-08-20T10:57:35;95421.66;;;29.98;57.84
23363;BME280;11853;48.080;11.960;2023-08-20T11:00:03;95423.97;;;30.11;55.88
23363;BME280;11853;48.080;11.960;2023-08-20T11:02:38;95417.91;;;30.09;55.24
23363;BME280;11853;48.080;11.960;2023-08-20T11:05:04;95416.00;;;30.09;57.28
23363;BME280;11853;48.080;11.960;2023-08-20T11:07:41;95417.88;;;30.04;57.14
23363;BME280;11853;48.080;11.960;2023-08-20T11:10:07;95420.06;;;30.02;57.57
23363;BME280;11853;48.080;11.960;2023-08-20T11:12:33;95426.22;;;30.19;56.85
23363;BME280;11853;48.080;11.960;2023-08-20T11:15:02;95420.91;;;30.07;57.58
23363;BME280;11853;48.080;11.960;2023-08-20T11:17:29;95426.34;;;30.02;61.45
23363;BME280;11853;48.080;11.960;2023-08-20T11:19:55;95423.34;;;30.04;62.15
23363;BME280;11853;48.080;11.960;2023-08-20T11:22:21;95422.88;;;30.12;59.43
23363;BME280;11853;48.080;11.960;2023-08-20T11:24:46;95425.59;;;30.12;58.94
23363;BME280;11853;48.080;11.960;2023-08-20T11:27:12;95423.38;;;30.09;60.61
23363;BME280;11853;48.080;11.960;2023-08-20T11:29:41;95420.13;;;30.12;61.09
23363;BME280;11853;48.080;11.960;2023-08-20T11:32:09;95417.44;;;30.17;62.60
23363;BME280;11853;48.080;11.960;2023-08-20T11:34:35;95426.78;;;30.21;60.92
23363;BME280;11853;48.080;11.960;2023-08-20T11:37:01;95422.38;;;30.20;60.77
23363;BME280;11853;48.080;11.960;2023-08-20T11:39:29;95429.78;;;30.20;62.35
23363;BME280;11853;48.080;11.960;2023-08-20T11:41:54;95428.19;;;30.24;62.69
23363;BME280;11853;48.080;11.960;2023-08-20T11:44:21;95421.34;;;30.26;60.67
23363;BME280;11853;48.080;11.960;2023-08-20T11:46:48;95417.53;;;30.27;60.77
23363;BME280;11853;48.080;11.960;2023-08-20T11:49:15;95412.66;;;30.35;55.09
23363;BME280;11853;48.080;11.960;2023-08-20T11:51:47;95411.56;;;30.36;57.22
23363;BME280;11853;48.080;11.960;2023-08-20T11:54:18;95406.34;;;30.34;58.31
23363;BME280;11853;48.080;11.960;2023-08-20T11:56:50;95404.41;;;30.29;59.09
23363;BME280;11853;48.080;11.960;2023-08-20T11:59:18;95397.84;;;30.30;60.60
23363;BME280;11853;48.080;11.960;2023-08-20T12:02:04;95392.28;;;30.63;55.60
23363;BME280;11853;48.080;11.960;2023-08-20T12:04:31;95394.72;;;30.54;55.97
23363;BME280;11853;48.080;11.960;2023-08-20T12:07:13;95399.13;;;30.60;54.44
23363;BME280;11853;48.080;11.960;2023-08-20T12:09:39;95391.41;;;30.52;54.16
23363;BME280;11853;48.080;11.960;2023-08-20T12:12:06;95385.88;;;30.47;56.11
23363;BME280;11853;48.080;11.960;2023-08-20T12:14:33;95389.72;;;30.46;55.17
23363;BME280;11853;48.080;11.960;2023-08-20T12:16:58;95396.63;;;30.53;54.54
23363;BME280;11853;48.080;11.960;2023-08-20T12:19:24;95396.41;;;30.65;51.81
23363;BME280;11853;48.080;11.960;2023-08-20T12:21:50;95390.94;;;30.70;53.60
23363;BME280;11853;48.080;11.960;2023-08-20T12:24:17;95393.66;;;30.60;53.46
23363;BME280;11853;48.080;11.960;2023-08-20T12:26:44;95397.66;;;30.47;50.36
23363;BME280;11853;48.080;11.960;2023-08-20T12:29:10;95388.59;;;30.37;53.71
23363;BME280;11853;48.080;11.960;2023-08-20T12:31:39;95387.44;;;30.33;57.09
23363;BME280;11853;48.080;11.960;2023-08-20T12:34:05;95387.56;;;30.53;54.22
23363;BME280;11853;48.080;11.960;2023-08-20T12:36:31;95382.63;;;30.50;51.18
23363;BME280;11853;48.080;11.960;2023-08-20T12:38:57;95381.78;;;30.49;51.97
23363;BME280;11853;48.080;11.960;2023-08-20T12:41:23;95378.81;;;30.51;51.74
23363;BME280;11853;48.080;11.960;2023-08-20T12:43:48;95377.75;;;30.57;52.64
23363;BME280;11853;48.080;11.960;2023-08-20T12:46:14;95374.97;;;30.52;54.43
23363;BME280;11853;48.080;11.960;2023-08-20T12:48:40;95368.69;;;30.57;54.29
23363;BME280;11853;48.080;11.960;2023-08-20T12:51:06;95374.44;;;30.55;54.37
23363;BME280;11853;48.080;11.960;2023-08-20T12:53:31;95369.78;;;30.50;51.73
23363;BME280;11853;48.080;11.960;2023-08-20T12:55:57;95375.03;;;30.62;50.85
23363;BME280;11853;48.080;11.960;2023-08-20T12:58:23;95373.91;;;30.58;51.60